Pville, Alabama
Current Conditions -  °F | °C
As of 1:55 PM on Sunday 23 Nov 2014 (Local Time) from K1A9 Reporting Station
Heavy Rain Heavy Rain  
Wind Chill: 66°   Ceiling: 5000
Heat Index: 66°   Visibility: 4mi
Dew Point: 64°   Wind: 6mph
Humidity: 92%   Direction: 210°SSW
Pressure: 29.62"   Gusts: 20mph
Location:  32.4989°N, 86.4129°W
Report Text: K1A9 231955Z AUTO 21005G17KT 4SM +RA SCT016 BKN050 OVC065 19/18 A2962 RMK AO2 P0043 T01900177
Loading
Personal Weather Stations






























Interactive Weather Map New forecast layout! Learn more

10-Day Weather Forecast

Advertisements
Track Severe Weather on mobile